首页
METAR-TAF:

METAR-TAF

机场 :

Aeroflex-Andover Airport

Andover, 新泽西州, 美国

纬度: 41-00-32N, 经度: 074-44-12W, 海拔: 177米

当前天气观测

该预报发布于47分钟前的15:54 UTC
风速5节,风向西转西南
温度 27°C
湿度 51%
气压 1018 hPa

METAR: K12N 261554Z AUTO 25005KT 27/16 A3006 RMK AO1 SLP171 T02670161

时间: 12:41 (16:41 UTC)


TAF: 丢失

超过4000个机场的气象观测和天气预报(METAR&TAF报告)。

可查询的气象台以黄色和红色小点在地图上表示。

将鼠标移到小点上方,可查看气象台名称。

然后点击查看天气观测和预报。

如需切换地图:点击带黑十字的绿色按钮放大地图;点击带横线的绿色按钮缩小地图;或者点击绿色箭头查看邻近地区的地图。


METAR-TAF: